sensor_id;sensor_type;location;lat;lon;timestamp;P1;durP1;ratioP1;P2;durP2;ratioP2
5263;SDS011;2654;47.958;13.614;2022-08-01T00:02:25;5.63;;;4.60;;
5263;SDS011;2654;47.958;13.614;2022-08-01T00:04:53;4.53;;;4.13;;
5263;SDS011;2654;47.958;13.614;2022-08-01T00:07:20;7.20;;;3.90;;
5263;SDS011;2654;47.958;13.614;2022-08-01T00:09:47;3.90;;;3.60;;
5263;SDS011;2654;47.958;13.614;2022-08-01T00:12:15;10.80;;;4.20;;
5263;SDS011;2654;47.958;13.614;2022-08-01T00:14:42;4.77;;;4.37;;
5263;SDS011;2654;47.958;13.614;2022-08-01T00:17:09;5.60;;;4.03;;
5263;SDS011;2654;47.958;13.614;2022-08-01T00:19:38;11.43;;;3.97;;
5263;SDS011;2654;47.958;13.614;2022-08-01T00:22:06;5.13;;;4.13;;
5263;SDS011;2654;47.958;13.614;2022-08-01T00:24:33;6.70;;;4.27;;
5263;SDS011;2654;47.958;13.614;2022-08-01T00:27:00;7.90;;;3.80;;
5263;SDS011;2654;47.958;13.614;2022-08-01T00:29:27;4.40;;;4.00;;
5263;SDS011;2654;47.958;13.614;2022-08-01T00:31:55;5.67;;;4.00;;
5263;SDS011;2654;47.958;13.614;2022-08-01T00:34:22;4.60;;;4.00;;
5263;SDS011;2654;47.958;13.614;2022-08-01T00:36:51;5.30;;;3.80;;
5263;SDS011;2654;47.958;13.614;2022-08-01T00:39:18;5.03;;;4.10;;
5263;SDS011;2654;47.958;13.614;2022-08-01T00:41:45;4.40;;;4.00;;
5263;SDS011;2654;47.958;13.614;2022-08-01T00:44:12;3.90;;;3.53;;
5263;SDS011;2654;47.958;13.614;2022-08-01T00:46:40;4.60;;;3.63;;
5263;SDS011;2654;47.958;13.614;2022-08-01T00:49:07;21.70;;;4.60;;
5263;SDS011;2654;47.958;13.614;2022-08-01T00:51:35;7.73;;;4.83;;
5263;SDS011;2654;47.958;13.614;2022-08-01T00:54:03;6.33;;;4.10;;
5263;SDS011;2654;47.958;13.614;2022-08-01T00:56:31;11.17;;;3.80;;
5263;SDS011;2654;47.958;13.614;2022-08-01T00:58:58;6.93;;;4.50;;
5263;SDS011;2654;47.958;13.614;2022-08-01T01:01:26;6.13;;;4.40;;
5263;SDS011;2654;47.958;13.614;2022-08-01T01:03:53;4.40;;;4.00;;
5263;SDS011;2654;47.958;13.614;2022-08-01T01:06:24;8.93;;;4.20;;
5263;SDS011;2654;47.958;13.614;2022-08-01T01:11:53;4.33;;;3.93;;
5263;SDS011;2654;47.958;13.614;2022-08-01T01:14:30;6.30;;;4.03;;
5263;SDS011;2654;47.958;13.614;2022-08-01T01:17:04;7.67;;;4.20;;
5263;SDS011;2654;47.958;13.614;2022-08-01T01:19:35;4.50;;;3.83;;
5263;SDS011;2654;47.958;13.614;2022-08-01T01:22:17;8.40;;;4.00;;
5263;SDS011;2654;47.958;13.614;2022-08-01T01:24:58;4.40;;;4.00;;
5263;SDS011;2654;47.958;13.614;2022-08-01T01:27:47;4.20;;;3.80;;
5263;SDS011;2654;47.958;13.614;2022-08-01T01:30:23;5.50;;;4.00;;
5263;SDS011;2654;47.958;13.614;2022-08-01T01:32:52;6.20;;;4.47;;
5263;SDS011;2654;47.958;13.614;2022-08-01T01:35:25;5.20;;;4.10;;
5263;SDS011;2654;47.958;13.614;2022-08-01T01:37:57;5.80;;;3.60;;
5263;SDS011;2654;47.958;13.614;2022-08-01T01:40:28;4.60;;;4.10;;
5263;SDS011;2654;47.958;13.614;2022-08-01T01:42:56;6.10;;;4.37;;
5263;SDS011;2654;47.958;13.614;2022-08-01T01:45:25;7.77;;;4.70;;
5263;SDS011;2654;47.958;13.614;2022-08-01T01:47:54;5.07;;;4.57;;
5263;SDS011;2654;47.958;13.614;2022-08-01T01:50:23;6.20;;;3.90;;
5263;SDS011;2654;47.958;13.614;2022-08-01T01:52:52;13.00;;;4.80;;
5263;SDS011;2654;47.958;13.614;2022-08-01T01:55:21;6.63;;;4.13;;
5263;SDS011;2654;47.958;13.614;2022-08-01T01:57:51;5.43;;;4.27;;
5263;SDS011;2654;47.958;13.614;2022-08-01T02:00:20;4.20;;;3.80;;
5263;SDS011;2654;47.958;13.614;2022-08-01T02:02:50;4.80;;;4.30;;
5263;SDS011;2654;47.958;13.614;2022-08-01T02:05:18;7.70;;;4.00;;
5263;SDS011;2654;47.958;13.614;2022-08-01T02:07:47;4.63;;;4.20;;
5263;SDS011;2654;47.958;13.614;2022-08-01T02:10:17;4.47;;;4.07;;
5263;SDS011;2654;47.958;13.614;2022-08-01T02:12:46;4.67;;;3.90;;
5263;SDS011;2654;47.958;13.614;2022-08-01T02:15:16;6.33;;;4.30;;
5263;SDS011;2654;47.958;13.614;2022-08-01T02:17:46;5.03;;;3.50;;
5263;SDS011;2654;47.958;13.614;2022-08-01T02:20:17;6.23;;;4.43;;
5263;SDS011;2654;47.958;13.614;2022-08-01T02:22:46;4.73;;;3.70;;
5263;SDS011;2654;47.958;13.614;2022-08-01T02:25:18;5.10;;;4.60;;
5263;SDS011;2654;47.958;13.614;2022-08-01T02:27:50;8.37;;;4.00;;
5263;SDS011;2654;47.958;13.614;2022-08-01T02:30:23;5.13;;;4.20;;
5263;SDS011;2654;47.958;13.614;2022-08-01T02:32:53;4.50;;;4.10;;
5263;SDS011;2654;47.958;13.614;2022-08-01T02:35:29;5.00;;;4.50;;
5263;SDS011;2654;47.958;13.614;2022-08-01T02:38:02;5.60;;;4.30;;
5263;SDS011;2654;47.958;13.614;2022-08-01T02:40:32;5.43;;;4.10;;
5263;SDS011;2654;47.958;13.614;2022-08-01T02:43:02;5.17;;;4.10;;
5263;SDS011;2654;47.958;13.614;2022-08-01T02:45:31;8.50;;;4.40;;
5263;SDS011;2654;47.958;13.614;2022-08-01T02:48:04;5.47;;;4.87;;
5263;SDS011;2654;47.958;13.614;2022-08-01T02:50:37;7.10;;;4.47;;
5263;SDS011;2654;47.958;13.614;2022-08-01T02:53:06;5.87;;;5.00;;
5263;SDS011;2654;47.958;13.614;2022-08-01T02:55:35;6.97;;;4.50;;
5263;SDS011;2654;47.958;13.614;2022-08-01T02:58:04;7.60;;;4.67;;
5263;SDS011;2654;47.958;13.614;2022-08-01T03:00:35;4.93;;;4.43;;
5263;SDS011;2654;47.958;13.614;2022-08-01T03:03:03;5.97;;;4.50;;
5263;SDS011;2654;47.958;13.614;2022-08-01T03:05:33;4.77;;;4.37;;
5263;SDS011;2654;47.958;13.614;2022-08-01T03:08:03;7.57;;;5.47;;
5263;SDS011;2654;47.958;13.614;2022-08-01T03:10:32;14.17;;;4.97;;
5263;SDS011;2654;47.958;13.614;2022-08-01T03:13:03;6.50;;;4.77;;
5263;SDS011;2654;47.958;13.614;2022-08-01T03:15:33;5.17;;;4.20;;
5263;SDS011;2654;47.958;13.614;2022-08-01T03:18:03;7.30;;;4.83;;
5263;SDS011;2654;47.958;13.614;2022-08-01T03:20:33;6.20;;;4.73;;
5263;SDS011;2654;47.958;13.614;2022-08-01T03:23:01;5.47;;;4.47;;
5263;SDS011;2654;47.958;13.614;2022-08-01T03:25:38;7.83;;;4.37;;
5263;SDS011;2654;47.958;13.614;2022-08-01T03:28:07;5.90;;;4.53;;
5263;SDS011;2654;47.958;13.614;2022-08-01T03:30:37;5.03;;;4.53;;
5263;SDS011;2654;47.958;13.614;2022-08-01T03:33:05;5.10;;;4.60;;
5263;SDS011;2654;47.958;13.614;2022-08-01T03:35:33;5.07;;;4.57;;
5263;SDS011;2654;47.958;13.614;2022-08-01T03:38:05;6.90;;;4.37;;
5263;SDS011;2654;47.958;13.614;2022-08-01T03:40:38;5.03;;;4.17;;
5263;SDS011;2654;47.958;13.614;2022-08-01T03:43:08;8.70;;;4.93;;
5263;SDS011;2654;47.958;13.614;2022-08-01T03:45:41;5.90;;;4.67;;
5263;SDS011;2654;47.958;13.614;2022-08-01T03:48:13;5.83;;;4.97;;
5263;SDS011;2654;47.958;13.614;2022-08-01T03:50:43;5.07;;;4.50;;
5263;SDS011;2654;47.958;13.614;2022-08-01T03:53:14;10.03;;;4.73;;
5263;SDS011;2654;47.958;13.614;2022-08-01T03:55:47;6.63;;;5.07;;
5263;SDS011;2654;47.958;13.614;2022-08-01T03:58:15;7.20;;;4.60;;
5263;SDS011;2654;47.958;13.614;2022-08-01T04:00:44;4.97;;;4.47;;
5263;SDS011;2654;47.958;13.614;2022-08-01T04:03:12;8.27;;;4.93;;
5263;SDS011;2654;47.958;13.614;2022-08-01T04:05:40;8.90;;;5.37;;
5263;SDS011;2654;47.958;13.614;2022-08-01T04:08:08;5.20;;;4.17;;
5263;SDS011;2654;47.958;13.614;2022-08-01T04:10:37;5.90;;;4.30;;
5263;SDS011;2654;47.958;13.614;2022-08-01T04:13:05;5.40;;;4.80;;
5263;SDS011;2654;47.958;13.614;2022-08-01T04:15:32;5.67;;;4.20;;
5263;SDS011;2654;47.958;13.614;2022-08-01T04:17:59;5.50;;;4.37;;
5263;SDS011;2654;47.958;13.614;2022-08-01T04:20:27;10.40;;;4.40;;
5263;SDS011;2654;47.958;13.614;2022-08-01T04:22:54;4.77;;;4.27;;
5263;SDS011;2654;47.958;13.614;2022-08-01T04:25:23;4.70;;;4.17;;
5263;SDS011;2654;47.958;13.614;2022-08-01T04:27:55;7.27;;;4.40;;
5263;SDS011;2654;47.958;13.614;2022-08-01T04:30:24;5.53;;;4.30;;
5263;SDS011;2654;47.958;13.614;2022-08-01T04:32:56;5.97;;;4.70;;
5263;SDS011;2654;47.958;13.614;2022-08-01T04:35:26;6.33;;;4.33;;
5263;SDS011;2654;47.958;13.614;2022-08-01T04:37:56;7.10;;;4.67;;
5263;SDS011;2654;47.958;13.614;2022-08-01T04:40:26;8.03;;;4.67;;
5263;SDS011;2654;47.958;13.614;2022-08-01T04:42:57;4.67;;;4.17;;
5263;SDS011;2654;47.958;13.614;2022-08-01T04:45:24;13.00;;;4.40;;
5263;SDS011;2654;47.958;13.614;2022-08-01T04:47:52;5.13;;;4.47;;
5263;SDS011;2654;47.958;13.614;2022-08-01T04:50:20;5.20;;;4.70;;
5263;SDS011;2654;47.958;13.614;2022-08-01T04:52:49;10.80;;;4.60;;
5263;SDS011;2654;47.958;13.614;2022-08-01T04:55:17;6.70;;;4.67;;
5263;SDS011;2654;47.958;13.614;2022-08-01T04:57:45;4.90;;;4.10;;
5263;SDS011;2654;47.958;13.614;2022-08-01T05:00:15;10.33;;;4.70;;
5263;SDS011;2654;47.958;13.614;2022-08-01T05:02:43;5.63;;;4.40;;
5263;SDS011;2654;47.958;13.614;2022-08-01T05:05:10;5.00;;;4.27;;
5263;SDS011;2654;47.958;13.614;2022-08-01T05:07:37;8.83;;;4.37;;
5263;SDS011;2654;47.958;13.614;2022-08-01T05:10:05;17.57;;;4.70;;
5263;SDS011;2654;47.958;13.614;2022-08-01T05:12:33;5.33;;;4.23;;
5263;SDS011;2654;47.958;13.614;2022-08-01T05:15:01;6.67;;;4.30;;
5263;SDS011;2654;47.958;13.614;2022-08-01T05:17:29;6.50;;;3.80;;
5263;SDS011;2654;47.958;13.614;2022-08-01T05:19:57;4.60;;;3.97;;
5263;SDS011;2654;47.958;13.614;2022-08-01T05:22:24;4.97;;;4.47;;
5263;SDS011;2654;47.958;13.614;2022-08-01T05:24:52;7.17;;;5.00;;
5263;SDS011;2654;47.958;13.614;2022-08-01T05:27:19;6.80;;;4.50;;
5263;SDS011;2654;47.958;13.614;2022-08-01T05:29:46;5.50;;;4.50;;
5263;SDS011;2654;47.958;13.614;2022-08-01T05:32:14;6.10;;;4.27;;
5263;SDS011;2654;47.958;13.614;2022-08-01T05:34:42;5.17;;;4.50;;
5263;SDS011;2654;47.958;13.614;2022-08-01T05:37:10;5.00;;;4.50;;
5263;SDS011;2654;47.958;13.614;2022-08-01T05:39:37;4.67;;;4.27;;
5263;SDS011;2654;47.958;13.614;2022-08-01T05:42:04;10.87;;;4.17;;
5263;SDS011;2654;47.958;13.614;2022-08-01T05:44:32;4.63;;;4.23;;
5263;SDS011;2654;47.958;13.614;2022-08-01T05:46:59;7.83;;;4.50;;
5263;SDS011;2654;47.958;13.614;2022-08-01T05:49:27;4.90;;;4.00;;
5263;SDS011;2654;47.958;13.614;2022-08-01T05:51:56;6.40;;;3.90;;
5263;SDS011;2654;47.958;13.614;2022-08-01T05:54:23;5.70;;;4.50;;
5263;SDS011;2654;47.958;13.614;2022-08-01T05:56:51;5.20;;;4.70;;
5263;SDS011;2654;47.958;13.614;2022-08-01T05:59:18;4.90;;;4.13;;
5263;SDS011;2654;47.958;13.614;2022-08-01T06:01:45;4.93;;;4.40;;
5263;SDS011;2654;47.958;13.614;2022-08-01T06:04:13;5.13;;;4.23;;
5263;SDS011;2654;47.958;13.614;2022-08-01T06:06:41;6.80;;;4.23;;
5263;SDS011;2654;47.958;13.614;2022-08-01T06:09:10;4.70;;;4.13;;
5263;SDS011;2654;47.958;13.614;2022-08-01T06:11:37;5.03;;;4.40;;
5263;SDS011;2654;47.958;13.614;2022-08-01T06:14:04;6.00;;;4.07;;
5263;SDS011;2654;47.958;13.614;2022-08-01T06:16:31;5.10;;;4.57;;
5263;SDS011;2654;47.958;13.614;2022-08-01T06:18:59;6.30;;;4.53;;
5263;SDS011;2654;47.958;13.614;2022-08-01T06:21:26;5.00;;;4.57;;
5263;SDS011;2654;47.958;13.614;2022-08-01T06:23:53;5.87;;;4.70;;
5263;SDS011;2654;47.958;13.614;2022-08-01T06:26:22;6.43;;;4.60;;
5263;SDS011;2654;47.958;13.614;2022-08-01T06:28:49;5.37;;;4.37;;
5263;SDS011;2654;47.958;13.614;2022-08-01T06:31:16;12.00;;;4.20;;
5263;SDS011;2654;47.958;13.614;2022-08-01T06:33:44;5.23;;;4.40;;
5263;SDS011;2654;47.958;13.614;2022-08-01T06:36:11;6.63;;;4.40;;
5263;SDS011;2654;47.958;13.614;2022-08-01T06:38:38;6.57;;;4.17;;
5263;SDS011;2654;47.958;13.614;2022-08-01T06:41:05;7.13;;;4.83;;
5263;SDS011;2654;47.958;13.614;2022-08-01T06:43:34;5.80;;;4.40;;
5263;SDS011;2654;47.958;13.614;2022-08-01T06:46:01;4.83;;;4.00;;
5263;SDS011;2654;47.958;13.614;2022-08-01T06:48:29;9.83;;;4.53;;
5263;SDS011;2654;47.958;13.614;2022-08-01T06:50:56;7.20;;;4.77;;
5263;SDS011;2654;47.958;13.614;2022-08-01T06:53:34;7.13;;;4.30;;
5263;SDS011;2654;47.958;13.614;2022-08-01T06:56:02;6.07;;;4.33;;
5263;SDS011;2654;47.958;13.614;2022-08-01T06:58:30;7.03;;;4.90;;
5263;SDS011;2654;47.958;13.614;2022-08-01T07:00:59;5.80;;;4.50;;
5263;SDS011;2654;47.958;13.614;2022-08-01T07:03:26;6.40;;;4.70;;
5263;SDS011;2654;47.958;13.614;2022-08-01T07:05:53;9.93;;;4.73;;
5263;SDS011;2654;47.958;13.614;2022-08-01T07:08:20;7.47;;;4.40;;
5263;SDS011;2654;47.958;13.614;2022-08-01T07:10:48;11.03;;;4.73;;
5263;SDS011;2654;47.958;13.614;2022-08-01T07:13:15;5.37;;;4.47;;
5263;SDS011;2654;47.958;13.614;2022-08-01T07:15:46;5.23;;;4.70;;
5263;SDS011;2654;47.958;13.614;2022-08-01T07:18:15;6.90;;;5.10;;
5263;SDS011;2654;47.958;13.614;2022-08-01T07:20:42;10.20;;;4.30;;
5263;SDS011;2654;47.958;13.614;2022-08-01T07:23:11;8.17;;;4.50;;
5263;SDS011;2654;47.958;13.614;2022-08-01T07:25:38;10.33;;;4.53;;
5263;SDS011;2654;47.958;13.614;2022-08-01T07:28:06;4.90;;;4.40;;
5263;SDS011;2654;47.958;13.614;2022-08-01T07:30:33;6.93;;;4.23;;
5263;SDS011;2654;47.958;13.614;2022-08-01T07:33:01;5.47;;;4.33;;
5263;SDS011;2654;47.958;13.614;2022-08-01T07:35:30;6.47;;;4.90;;
5263;SDS011;2654;47.958;13.614;2022-08-01T07:37:57;5.33;;;4.83;;
5263;SDS011;2654;47.958;13.614;2022-08-01T07:40:25;5.80;;;4.80;;
5263;SDS011;2654;47.958;13.614;2022-08-01T07:42:52;10.00;;;5.00;;
5263;SDS011;2654;47.958;13.614;2022-08-01T07:45:19;12.80;;;4.70;;
5263;SDS011;2654;47.958;13.614;2022-08-01T07:47:47;6.10;;;4.70;;
5263;SDS011;2654;47.958;13.614;2022-08-01T07:50:14;6.40;;;4.87;;
5263;SDS011;2654;47.958;13.614;2022-08-01T07:52:43;13.73;;;5.00;;
5263;SDS011;2654;47.958;13.614;2022-08-01T07:55:11;5.63;;;5.00;;
5263;SDS011;2654;47.958;13.614;2022-08-01T07:57:38;6.10;;;4.77;;
5263;SDS011;2654;47.958;13.614;2022-08-01T08:00:06;11.37;;;5.10;;
5263;SDS011;2654;47.958;13.614;2022-08-01T08:02:35;8.30;;;5.03;;
5263;SDS011;2654;47.958;13.614;2022-08-01T08:05:02;8.20;;;5.87;;
5263;SDS011;2654;47.958;13.614;2022-08-01T08:07:30;7.33;;;5.07;;
5263;SDS011;2654;47.958;13.614;2022-08-01T08:09:58;6.00;;;5.00;;
5263;SDS011;2654;47.958;13.614;2022-08-01T08:12:27;8.37;;;5.27;;
5263;SDS011;2654;47.958;13.614;2022-08-01T08:14:54;9.40;;;5.27;;
5263;SDS011;2654;47.958;13.614;2022-08-01T08:17:21;8.17;;;4.90;;
5263;SDS011;2654;47.958;13.614;2022-08-01T08:19:48;5.93;;;4.80;;
5263;SDS011;2654;47.958;13.614;2022-08-01T08:22:16;15.00;;;5.03;;
5263;SDS011;2654;47.958;13.614;2022-08-01T08:24:43;6.73;;;5.30;;
5263;SDS011;2654;47.958;13.614;2022-08-01T08:27:12;8.40;;;4.83;;
5263;SDS011;2654;47.958;13.614;2022-08-01T08:29:40;14.67;;;4.83;;
5263;SDS011;2654;47.958;13.614;2022-08-01T08:32:08;8.80;;;5.57;;
5263;SDS011;2654;47.958;13.614;2022-08-01T08:34:35;12.30;;;6.30;;
5263;SDS011;2654;47.958;13.614;2022-08-01T08:37:03;7.83;;;5.80;;
5263;SDS011;2654;47.958;13.614;2022-08-01T08:39:30;6.53;;;4.90;;
5263;SDS011;2654;47.958;13.614;2022-08-01T08:41:59;5.83;;;5.23;;
5263;SDS011;2654;47.958;13.614;2022-08-01T08:44:28;5.73;;;5.00;;
5263;SDS011;2654;47.958;13.614;2022-08-01T08:46:55;5.30;;;4.73;;
5263;SDS011;2654;47.958;13.614;2022-08-01T08:49:27;14.90;;;5.90;;
5263;SDS011;2654;47.958;13.614;2022-08-01T08:51:57;6.20;;;4.80;;
5263;SDS011;2654;47.958;13.614;2022-08-01T08:54:26;6.40;;;4.93;;
5263;SDS011;2654;47.958;13.614;2022-08-01T08:56:55;15.50;;;5.50;;
5263;SDS011;2654;47.958;13.614;2022-08-01T08:59:23;11.53;;;5.20;;
5263;SDS011;2654;47.958;13.614;2022-08-01T09:01:53;10.47;;;4.67;;
5263;SDS011;2654;47.958;13.614;2022-08-01T09:04:21;8.83;;;4.63;;
5263;SDS011;2654;47.958;13.614;2022-08-01T09:06:48;5.70;;;4.70;;
5263;SDS011;2654;47.958;13.614;2022-08-01T09:09:16;8.93;;;5.13;;
5263;SDS011;2654;47.958;13.614;2022-08-01T09:11:43;8.50;;;5.00;;
5263;SDS011;2654;47.958;13.614;2022-08-01T09:14:11;6.90;;;4.90;;
5263;SDS011;2654;47.958;13.614;2022-08-01T09:16:41;6.47;;;5.47;;
5263;SDS011;2654;47.958;13.614;2022-08-01T09:19:12;7.70;;;5.43;;
5263;SDS011;2654;47.958;13.614;2022-08-01T09:21:54;8.67;;;5.73;;
5263;SDS011;2654;47.958;13.614;2022-08-01T09:24:24;12.73;;;5.43;;
5263;SDS011;2654;47.958;13.614;2022-08-01T09:26:52;8.43;;;4.93;;
5263;SDS011;2654;47.958;13.614;2022-08-01T09:29:20;5.77;;;5.10;;
5263;SDS011;2654;47.958;13.614;2022-08-01T09:31:49;5.87;;;5.27;;
5263;SDS011;2654;47.958;13.614;2022-08-01T09:34:23;7.80;;;5.60;;
5263;SDS011;2654;47.958;13.614;2022-08-01T09:36:52;6.70;;;5.57;;
5263;SDS011;2654;47.958;13.614;2022-08-01T09:39:21;6.70;;;5.80;;
5263;SDS011;2654;47.958;13.614;2022-08-01T09:41:50;6.47;;;5.70;;
5263;SDS011;2654;47.958;13.614;2022-08-01T09:44:17;7.00;;;5.77;;
5263;SDS011;2654;47.958;13.614;2022-08-01T09:46:55;14.03;;;5.80;;
5263;SDS011;2654;47.958;13.614;2022-08-01T09:49:28;5.43;;;4.90;;
5263;SDS011;2654;47.958;13.614;2022-08-01T09:51:57;7.50;;;5.60;;
5263;SDS011;2654;47.958;13.614;2022-08-01T09:54:29;9.27;;;5.20;;
5263;SDS011;2654;47.958;13.614;2022-08-01T09:57:07;13.30;;;4.97;;
5263;SDS011;2654;47.958;13.614;2022-08-01T09:59:36;7.17;;;5.13;;
5263;SDS011;2654;47.958;13.614;2022-08-01T10:02:05;5.07;;;4.40;;
5263;SDS011;2654;47.958;13.614;2022-08-01T10:04:35;5.30;;;4.80;;
5263;SDS011;2654;47.958;13.614;2022-08-01T10:07:06;11.30;;;5.60;;
5263;SDS011;2654;47.958;13.614;2022-08-01T10:09:34;6.00;;;5.10;;
5263;SDS011;2654;47.958;13.614;2022-08-01T10:12:03;8.07;;;4.80;;
5263;SDS011;2654;47.958;13.614;2022-08-01T10:14:31;6.30;;;4.80;;
5263;SDS011;2654;47.958;13.614;2022-08-01T10:16:58;9.33;;;5.03;;
5263;SDS011;2654;47.958;13.614;2022-08-01T10:19:27;6.47;;;5.40;;
5263;SDS011;2654;47.958;13.614;2022-08-01T10:21:58;5.87;;;5.33;;
5263;SDS011;2654;47.958;13.614;2022-08-01T10:24:28;6.83;;;5.20;;
5263;SDS011;2654;47.958;13.614;2022-08-01T10:26:57;8.17;;;4.90;;
5263;SDS011;2654;47.958;13.614;2022-08-01T10:29:28;5.13;;;4.40;;
5263;SDS011;2654;47.958;13.614;2022-08-01T10:32:02;7.63;;;4.40;;
5263;SDS011;2654;47.958;13.614;2022-08-01T10:34:34;9.83;;;5.17;;
5263;SDS011;2654;47.958;13.614;2022-08-01T10:37:04;9.40;;;5.40;;
5263;SDS011;2654;47.958;13.614;2022-08-01T10:39:32;6.50;;;5.10;;
5263;SDS011;2654;47.958;13.614;2022-08-01T10:42:00;8.13;;;4.90;;
5263;SDS011;2654;47.958;13.614;2022-08-01T10:44:28;6.37;;;5.03;;
5263;SDS011;2654;47.958;13.614;2022-08-01T10:46:59;5.30;;;4.17;;
5263;SDS011;2654;47.958;13.614;2022-08-01T10:49:31;6.63;;;4.43;;
5263;SDS011;2654;47.958;13.614;2022-08-01T10:52:04;12.27;;;4.60;;
5263;SDS011;2654;47.958;13.614;2022-08-01T10:54:38;16.97;;;4.80;;
5263;SDS011;2654;47.958;13.614;2022-08-01T10:57:06;6.53;;;4.90;;
5263;SDS011;2654;47.958;13.614;2022-08-01T10:59:35;7.13;;;5.00;;
5263;SDS011;2654;47.958;13.614;2022-08-01T11:02:19;5.63;;;3.83;;
5263;SDS011;2654;47.958;13.614;2022-08-01T11:04:54;5.20;;;4.03;;
5263;SDS011;2654;47.958;13.614;2022-08-01T11:07:35;5.33;;;3.30;;
5263;SDS011;2654;47.958;13.614;2022-08-01T11:10:14;7.60;;;4.10;;
5263;SDS011;2654;47.958;13.614;2022-08-01T11:12:48;4.30;;;3.60;;
5263;SDS011;2654;47.958;13.614;2022-08-01T11:15:16;7.10;;;3.60;;
5263;SDS011;2654;47.958;13.614;2022-08-01T11:17:51;4.63;;;3.80;;
5263;SDS011;2654;47.958;13.614;2022-08-01T11:20:19;3.33;;;3.03;;
5263;SDS011;2654;47.958;13.614;2022-08-01T11:28:37;5.00;;;4.23;;
5263;SDS011;2654;47.958;13.614;2022-08-01T11:33:59;4.27;;;3.87;;
5263;SDS011;2654;47.958;13.614;2022-08-01T11:36:26;4.00;;;3.47;;
5263;SDS011;2654;47.958;13.614;2022-08-01T11:39:17;4.57;;;4.17;;
5263;SDS011;2654;47.958;13.614;2022-08-01T11:41:47;4.60;;;4.13;;
5263;SDS011;2654;47.958;13.614;2022-08-01T11:44:19;3.93;;;3.53;;
5263;SDS011;2654;47.958;13.614;2022-08-01T11:46:57;4.40;;;3.53;;
5263;SDS011;2654;47.958;13.614;2022-08-01T11:52:15;4.93;;;3.40;;
5263;SDS011;2654;47.958;13.614;2022-08-01T11:54:46;5.30;;;4.10;;
5263;SDS011;2654;47.958;13.614;2022-08-01T11:57:17;6.23;;;3.57;;
5263;SDS011;2654;47.958;13.614;2022-08-01T11:59:46;4.00;;;3.23;;
5263;SDS011;2654;47.958;13.614;2022-08-01T12:02:15;6.57;;;4.63;;
5263;SDS011;2654;47.958;13.614;2022-08-01T12:04:45;4.20;;;3.80;;
5263;SDS011;2654;47.958;13.614;2022-08-01T12:07:20;4.73;;;4.10;;
5263;SDS011;2654;47.958;13.614;2022-08-01T12:09:56;5.80;;;3.70;;
5263;SDS011;2654;47.958;13.614;2022-08-01T12:12:25;11.67;;;4.20;;
5263;SDS011;2654;47.958;13.614;2022-08-01T12:14:53;4.63;;;4.23;;
5263;SDS011;2654;47.958;13.614;2022-08-01T12:17:32;6.47;;;3.90;;
5263;SDS011;2654;47.958;13.614;2022-08-01T12:20:01;5.50;;;4.50;;
5263;SDS011;2654;47.958;13.614;2022-08-01T12:22:29;4.93;;;3.87;;
5263;SDS011;2654;47.958;13.614;2022-08-01T12:25:05;7.30;;;4.30;;
5263;SDS011;2654;47.958;13.614;2022-08-01T12:27:34;14.97;;;4.03;;
5263;SDS011;2654;47.958;13.614;2022-08-01T12:30:03;6.47;;;4.07;;
5263;SDS011;2654;47.958;13.614;2022-08-01T12:32:33;4.90;;;4.07;;
5263;SDS011;2654;47.958;13.614;2022-08-01T12:35:03;5.90;;;3.87;;
5263;SDS011;2654;47.958;13.614;2022-08-01T12:37:32;5.90;;;4.00;;
5263;SDS011;2654;47.958;13.614;2022-08-01T12:40:02;5.00;;;3.80;;
5263;SDS011;2654;47.958;13.614;2022-08-01T12:42:38;5.87;;;4.20;;
5263;SDS011;2654;47.958;13.614;2022-08-01T12:45:07;4.63;;;4.20;;
5263;SDS011;2654;47.958;13.614;2022-08-01T12:47:36;4.30;;;3.90;;
5263;SDS011;2654;47.958;13.614;2022-08-01T12:50:05;4.53;;;4.13;;
5263;SDS011;2654;47.958;13.614;2022-08-01T12:52:34;4.73;;;3.80;;
5263;SDS011;2654;47.958;13.614;2022-08-01T12:55:05;5.17;;;4.20;;
5263;SDS011;2654;47.958;13.614;2022-08-01T12:57:37;4.40;;;3.97;;
5263;SDS011;2654;47.958;13.614;2022-08-01T13:00:15;3.57;;;3.27;;
5263;SDS011;2654;47.958;13.614;2022-08-01T13:02:44;4.73;;;3.80;;
5263;SDS011;2654;47.958;13.614;2022-08-01T13:05:13;6.77;;;4.30;;
5263;SDS011;2654;47.958;13.614;2022-08-01T13:07:42;5.40;;;4.30;;
5263;SDS011;2654;47.958;13.614;2022-08-01T13:10:12;4.00;;;3.63;;
5263;SDS011;2654;47.958;13.614;2022-08-01T13:12:51;6.37;;;4.27;;
5263;SDS011;2654;47.958;13.614;2022-08-01T13:15:26;6.10;;;4.07;;
5263;SDS011;2654;47.958;13.614;2022-08-01T13:17:56;5.27;;;3.73;;
5263;SDS011;2654;47.958;13.614;2022-08-01T13:23:13;6.80;;;4.13;;
5263;SDS011;2654;47.958;13.614;2022-08-01T13:25:48;4.93;;;4.47;;
5263;SDS011;2654;47.958;13.614;2022-08-01T13:28:19;6.00;;;4.87;;
5263;SDS011;2654;47.958;13.614;2022-08-01T13:30:51;6.03;;;4.43;;
5263;SDS011;2654;47.958;13.614;2022-08-01T13:33:22;7.27;;;4.40;;
5263;SDS011;2654;47.958;13.614;2022-08-01T13:35:50;7.97;;;4.50;;
5263;SDS011;2654;47.958;13.614;2022-08-01T13:38:18;6.00;;;4.73;;
5263;SDS011;2654;47.958;13.614;2022-08-01T13:41:05;6.60;;;4.60;;
5263;SDS011;2654;47.958;13.614;2022-08-01T13:43:34;7.20;;;5.27;;
5263;SDS011;2654;47.958;13.614;2022-08-01T13:46:01;4.70;;;3.97;;
5263;SDS011;2654;47.958;13.614;2022-08-01T13:48:29;5.30;;;4.47;;
5263;SDS011;2654;47.958;13.614;2022-08-01T13:50:58;9.10;;;4.43;;
5263;SDS011;2654;47.958;13.614;2022-08-01T13:53:25;5.90;;;4.47;;
5263;SDS011;2654;47.958;13.614;2022-08-01T13:55:53;9.23;;;4.80;;
5263;SDS011;2654;47.958;13.614;2022-08-01T13:58:21;5.00;;;4.27;;
5263;SDS011;2654;47.958;13.614;2022-08-01T14:00:49;6.30;;;4.70;;
5263;SDS011;2654;47.958;13.614;2022-08-01T14:03:17;6.30;;;4.30;;
5263;SDS011;2654;47.958;13.614;2022-08-01T14:05:45;7.60;;;3.70;;
5263;SDS011;2654;47.958;13.614;2022-08-01T14:08:12;9.20;;;2.80;;
5263;SDS011;2654;47.958;13.614;2022-08-01T14:10:40;6.93;;;3.50;;
5263;SDS011;2654;47.958;13.614;2022-08-01T14:13:07;3.73;;;3.20;;
5263;SDS011;2654;47.958;13.614;2022-08-01T14:15:36;3.33;;;2.83;;
5263;SDS011;2654;47.958;13.614;2022-08-01T14:18:05;6.30;;;3.20;;
5263;SDS011;2654;47.958;13.614;2022-08-01T14:20:33;13.00;;;3.03;;
5263;SDS011;2654;47.958;13.614;2022-08-01T14:23:00;5.83;;;3.27;;
5263;SDS011;2654;47.958;13.614;2022-08-01T14:25:27;4.90;;;2.90;;
5263;SDS011;2654;47.958;13.614;2022-08-01T14:27:54;4.43;;;3.23;;
5263;SDS011;2654;47.958;13.614;2022-08-01T14:30:22;5.33;;;3.83;;
5263;SDS011;2654;47.958;13.614;2022-08-01T14:32:49;13.80;;;3.70;;
5263;SDS011;2654;47.958;13.614;2022-08-01T14:35:18;4.80;;;3.50;;
5263;SDS011;2654;47.958;13.614;2022-08-01T14:37:46;4.00;;;3.43;;
5263;SDS011;2654;47.958;13.614;2022-08-01T14:40:13;4.10;;;3.00;;
5263;SDS011;2654;47.958;13.614;2022-08-01T14:42:40;5.17;;;3.83;;
5263;SDS011;2654;47.958;13.614;2022-08-01T14:45:10;4.80;;;3.83;;
5263;SDS011;2654;47.958;13.614;2022-08-01T14:47:38;4.00;;;3.50;;
5263;SDS011;2654;47.958;13.614;2022-08-01T14:50:08;4.50;;;3.87;;
5263;SDS011;2654;47.958;13.614;2022-08-01T14:52:38;12.90;;;4.13;;
5263;SDS011;2654;47.958;13.614;2022-08-01T14:55:06;5.07;;;4.03;;
5263;SDS011;2654;47.958;13.614;2022-08-01T14:57:35;5.63;;;4.57;;
5263;SDS011;2654;47.958;13.614;2022-08-01T15:00:04;4.97;;;3.37;;
5263;SDS011;2654;47.958;13.614;2022-08-01T15:02:35;5.43;;;3.97;;
5263;SDS011;2654;47.958;13.614;2022-08-01T15:05:03;4.40;;;3.70;;
5263;SDS011;2654;47.958;13.614;2022-08-01T15:07:31;8.30;;;4.10;;
5263;SDS011;2654;47.958;13.614;2022-08-01T15:10:00;8.53;;;3.90;;
5263;SDS011;2654;47.958;13.614;2022-08-01T15:12:28;4.20;;;3.40;;
5263;SDS011;2654;47.958;13.614;2022-08-01T15:14:58;4.53;;;3.80;;
5263;SDS011;2654;47.958;13.614;2022-08-01T15:17:26;4.50;;;4.10;;
5263;SDS011;2654;47.958;13.614;2022-08-01T15:19:56;5.30;;;3.87;;
5263;SDS011;2654;47.958;13.614;2022-08-01T15:22:26;5.50;;;4.00;;
5263;SDS011;2654;47.958;13.614;2022-08-01T15:24:54;7.53;;;3.97;;
5263;SDS011;2654;47.958;13.614;2022-08-01T15:27:24;5.00;;;4.20;;
5263;SDS011;2654;47.958;13.614;2022-08-01T15:29:52;5.10;;;4.17;;
5263;SDS011;2654;47.958;13.614;2022-08-01T15:32:19;5.27;;;4.43;;